Union Center, WI

2:10 AM CDT on July 24, 2014 (GMT -0500)
Kendall, Wi. (KWIKENDA1) Elev 1021 ft | 43.79 °N, 90.37 °W | Change Station

Current weather conditions updated 1 second ago

Clear
Clear
55.9 °F
Feels Like 55.9 °F
N
0.0
Wind Variable Wind from North
Gusts 0.0 mph

Today is forecast to be Cooler than yesterday. Chance of late night showers tonight.

Today
High -- | Low -- °F
--% Chance of Precip.
Yesterday
High -- | Low -- °F
Precip. -- in
5:41 AM 8:32 PM
Waning Crescent, 6% visible
Pressure 30.17 in
Visibility 10.0 miles
Clouds Clear
Dew Point 53 °F
Humidity 91%
Rainfall 0.00 in
Snow Depth Not available.
UV 0 out of 12
Pollen 6.20 out of 12
Air Quality Not available.
Flu Activity Not available.
METAR KVOK 240658Z AUTO 13003KT 10SM CLR 11/11 A3016 RMK AO2 SLP214 T01100110

More Conditions Fewer Conditions

Pressure 30.17 in
Visibility 10.0 miles
Clouds Clear
Dew Point 53 °F
Humidity 91%
Rainfall 0.00 in
Snow Depth Not available.
UV 0 out of 12
Pollen 6.20 out of 12
Air Quality Not available.
Flu Activity Not available.
METAR KVOK 240658Z AUTO 13003KT 10SM CLR 11/11 A3016 RMK AO2 SLP214 T01100110

More Conditions Fewer Conditions

10-Day Weather Forecast

Almanac

Astronomy

Jul. 24, 2014 Rise Set
Actual Time 5:41 AM CDT 8:32 PM CDT
Civil Twilight 5:08 AM CDT 9:06 PM CDT
Nautical Twilight 4:25 AM CDT 9:48 PM CDT
Astronomical Twilight 3:35 AM CDT 10:38 PM CDT
Moon 3:50 AM CDT 6:46 PM CDT
Length of Visible Light 15h 58m
Length of Day
14h 51m
Tomorrow will be 2m 1s shorter.
Waning Crescent, 6% of the Moon is Illuminated
Today
Waning Crescent
Jul 26
New
Aug 3
First Quarter
Aug 10
Full
Aug 17
Last Quarter

Today's Extremes

State Highs State Lows

Community

WunderPhotos

Upload Photos

1,736,950 photos uploaded!

Nearby

Snow Depth

Station Depth Elevation
No new snow has been reported.

Earthquake Activity

City Distance Mag. Time & Date
No recent earthquake activity has been reported nearby.
Minimum magnitude displayed is 2.5.

Coastal Water Temperatures

Place Temperature
No Stations Reporting

Nearby Weather Stations

Station Location Temp. Dew Point Humidity Wind Precip. Elev Updated Type
Kendall, Wi., Kendall, WI 55.9 °F 53 °F 91% North  at  0.0 mph 0.00 in / hr 1021 ft 2:10 AM CDT Rapid Fire
Juneau County Weather, Mauston, WI 60.3 °F 57 °F 88% South  at  1.3 mph 0.00 in / hr 873 ft 2:10 AM CDT Rapid Fire
WIDOT Mauston - I-90/94 @ STH 80, Mauston, WI 62 °F 62 °F 99% ESE  at  3 mph 0.00 in / hr 880 ft 1:02 AM CDT MADIS
New Lisbon, WI 57.3 °F 55 °F 93% SE  at  0.0 mph 0.00 in / hr 891 ft 2:10 AM CDT Rapid Fire
Reedsburg, WI 61.2 °F 57 °F 86% NE  at  0.0 mph 0.00 in / hr 908 ft 2:10 AM CDT Rapid Fire
Reedsburg, WI 60.2 °F 50 °F 68% SE  at  4.0 mph 0.00 in / hr 915 ft 2:07 AM CDT Normal

Show More Stations Show Fewer Stations